createdAt,value
2023-04-24T00:02:46.232Z,10.70
2023-04-24T00:07:46.323Z,10.77
2023-04-24T00:12:46.457Z,10.65
2023-04-24T00:17:45.754Z,10.52
2023-04-24T00:22:46.955Z,10.39
2023-04-24T00:27:47.986Z,10.55
2023-04-24T00:32:49.130Z,10.89
2023-04-24T00:37:51.187Z,11.31
2023-04-24T00:42:50.274Z,11.80
2023-04-24T00:47:51.418Z,11.65
2023-04-24T00:52:52.518Z,11.78
2023-04-24T00:57:54.636Z,11.35
2023-04-24T01:02:55.845Z,11.13
2023-04-24T01:07:54.950Z,10.92
2023-04-24T01:12:56.171Z,10.81
2023-04-24T01:17:57.341Z,10.74
2023-04-24T01:22:58.514Z,10.66
2023-04-24T01:27:59.614Z,10.66
2023-04-24T01:33:00.753Z,10.68
2023-04-24T01:38:01.840Z,10.70
2023-04-24T01:43:02.984Z,10.63
2023-04-24T01:48:05.093Z,10.42
2023-04-24T01:53:04.171Z,10.36
2023-04-24T01:58:06.235Z,10.18
2023-04-24T02:03:06.519Z,10.33
2023-04-24T02:08:05.589Z,10.32
2023-04-24T02:13:08.670Z,10.18
2023-04-24T02:18:07.738Z,10.06
2023-04-24T02:23:08.842Z,10.06
2023-04-24T02:28:09.951Z,10.01
2023-04-24T02:33:11.081Z,9.97
2023-04-24T02:38:12.155Z,9.93
2023-04-24T02:43:12.274Z,9.94
2023-04-24T02:48:14.388Z,9.96
2023-04-24T02:53:14.525Z,9.93
2023-04-24T02:58:13.655Z,9.94
2023-04-24T03:03:15.859Z,9.94
2023-04-24T03:08:15.054Z,9.93
2023-04-24T03:13:20.025Z,9.94
2023-04-24T03:18:18.158Z,10.06
2023-04-24T03:23:18.218Z,10.12
2023-04-24T03:28:19.311Z,10.14
2023-04-24T03:33:18.416Z,10.19
2023-04-24T03:38:19.506Z,10.22
2023-04-24T03:43:21.593Z,10.24
2023-04-24T03:48:21.689Z,10.25
2023-04-24T03:53:22.841Z,10.18
2023-04-24T03:58:21.902Z,10.10
2023-04-24T04:03:23.422Z,10.06
2023-04-24T04:08:24.650Z,10.10
2023-04-24T04:13:24.747Z,10.06
2023-04-24T04:18:24.846Z,10.03
2023-04-24T04:23:23.908Z,10.00
2023-04-24T04:28:24.987Z,10.06
2023-04-24T04:33:26.042Z,10.06
2023-04-24T04:38:28.103Z,10.10
2023-04-24T04:43:28.184Z,10.03
2023-04-24T04:48:28.263Z,9.96
2023-04-24T04:53:27.348Z,10.01
2023-04-24T04:58:27.415Z,10.04
2023-04-24T05:03:29.581Z,10.04
2023-04-24T05:08:29.761Z,10.01
2023-04-24T05:13:38.999Z,10.04
2023-04-24T05:18:28.751Z,10.00
2023-04-24T05:23:30.860Z,10.00
2023-04-24T05:28:29.993Z,10.01
2023-04-24T05:33:32.082Z,10.06
2023-04-24T05:38:32.164Z,10.03
2023-04-24T05:43:32.229Z,10.10
2023-04-24T05:48:31.295Z,10.15
2023-04-24T05:53:32.421Z,10.17
2023-04-24T05:58:34.484Z,10.18
2023-04-24T06:03:34.754Z,10.14
2023-04-24T06:08:34.847Z,9.99
2023-04-24T06:13:33.959Z,9.71
2023-04-24T06:18:36.169Z,9.49
2023-04-24T06:23:35.239Z,9.31
2023-04-24T06:28:40.210Z,9.46
2023-04-24T06:33:39.363Z,9.49
2023-04-24T06:38:39.382Z,9.73
2023-04-24T06:43:38.462Z,9.75
2023-04-24T06:48:40.537Z,9.50
2023-04-24T06:53:39.636Z,9.42
2023-04-24T06:58:42.002Z,9.66
2023-04-24T07:03:41.231Z,9.79
2023-04-24T07:08:42.390Z,10.14
2023-04-24T07:13:43.500Z,10.65
2023-04-24T07:18:44.578Z,11.17
2023-04-24T07:23:45.761Z,11.64
2023-04-24T07:28:47.118Z,11.83
2023-04-24T07:33:48.191Z,11.34
2023-04-24T07:38:51.263Z,11.93
2023-04-24T07:43:50.493Z,12.81
2023-04-24T07:49:01.840Z,13.24
2023-04-24T07:53:51.650Z,13.17
2023-04-24T07:58:52.761Z,12.96
2023-04-24T08:03:54.005Z,12.77
2023-04-24T08:08:55.344Z,12.63
2023-04-24T08:13:56.447Z,13.06
2023-04-24T08:18:57.648Z,14.20
2023-04-24T08:23:58.683Z,14.93
2023-04-24T08:28:59.820Z,14.50
2023-04-24T08:34:01.933Z,13.80
2023-04-24T08:39:01.024Z,13.18
2023-04-24T08:44:02.193Z,12.81
2023-04-24T08:49:05.263Z,12.85
2023-04-24T08:54:04.655Z,11.75
2023-04-24T08:59:05.785Z,10.76
2023-04-24T09:04:12.152Z,10.86
2023-04-24T09:09:07.701Z,11.13
2023-04-24T09:14:09.838Z,11.71
2023-04-24T09:19:08.965Z,13.02
2023-04-24T09:24:10.104Z,13.62
2023-04-24T09:29:11.285Z,14.46
2023-04-24T09:34:11.381Z,15.36
2023-04-24T09:39:12.779Z,15.38
2023-04-24T09:44:14.161Z,15.84
2023-04-24T09:49:15.269Z,15.19
2023-04-24T09:54:16.399Z,12.38
2023-04-24T09:59:17.507Z,10.80
2023-04-24T10:04:18.942Z,11.06
2023-04-24T10:09:20.086Z,11.56
2023-04-24T10:14:21.173Z,11.67
2023-04-24T10:19:22.315Z,11.78
2023-04-24T10:24:23.454Z,12.59
2023-04-24T10:29:24.585Z,12.34
2023-04-24T10:34:25.710Z,12.15
2023-04-24T10:39:27.230Z,11.82
2023-04-24T10:44:27.069Z,12.13
2023-04-24T10:49:28.118Z,12.52
2023-04-24T10:54:29.247Z,12.23
2023-04-24T10:59:30.374Z,11.83
2023-04-24T11:04:33.520Z,12.09
2023-04-24T11:09:31.685Z,12.16
2023-04-24T11:14:32.826Z,12.78
2023-04-24T11:19:33.953Z,13.24
2023-04-24T11:24:35.330Z,13.58
2023-04-24T11:29:36.500Z,13.58
2023-04-24T11:34:37.728Z,13.70
2023-04-24T11:39:38.803Z,14.31
2023-04-24T11:44:40.001Z,14.74
2023-04-24T11:49:43.120Z,14.34
2023-04-24T11:54:42.247Z,14.20
2023-04-24T11:59:43.339Z,14.39
2023-04-24T12:04:44.919Z,14.94
2023-04-24T12:09:57.100Z,15.24
2023-04-24T12:14:44.034Z,15.27
2023-04-24T12:19:45.181Z,13.87
2023-04-24T12:24:45.294Z,13.40
2023-04-24T12:29:46.368Z,12.12
2023-04-24T12:34:47.467Z,11.54
2023-04-24T12:39:48.544Z,10.36
2023-04-24T12:44:49.678Z,11.20
2023-04-24T12:49:50.745Z,12.23
2023-04-24T12:54:52.851Z,13.61
2023-04-24T12:59:51.908Z,12.62
2023-04-24T13:04:53.133Z,12.45
2023-04-24T13:09:54.389Z,12.60
2023-04-24T13:14:55.639Z,11.78
2023-04-24T13:19:57.709Z,11.50
2023-04-24T13:24:56.770Z,11.59
2023-04-24T13:29:59.832Z,12.29
2023-04-24T13:34:58.895Z,12.30
2023-04-24T13:39:59.960Z,13.37
2023-04-24T13:45:05.902Z,12.39
2023-04-24T13:50:01.964Z,12.93
2023-04-24T13:55:03.049Z,13.58
2023-04-24T14:00:04.163Z,12.92
2023-04-24T14:05:05.265Z,12.59
2023-04-24T14:10:06.520Z,13.56
2023-04-24T14:15:07.557Z,14.16
2023-04-24T14:20:08.775Z,13.83
2023-04-24T14:25:09.851Z,15.09
2023-04-24T14:30:10.918Z,15.97
2023-04-24T14:35:12.976Z,16.33
2023-04-24T14:40:29.797Z,15.70
2023-04-24T14:45:12.980Z,14.71
2023-04-24T14:50:13.074Z,13.59
2023-04-24T14:55:13.157Z,12.74
2023-04-24T15:00:12.236Z,13.63
2023-04-24T15:05:15.771Z,13.76
2023-04-24T15:10:13.079Z,13.70
2023-04-24T15:15:14.083Z,13.59
2023-04-24T15:20:15.157Z,14.35
2023-04-24T15:25:16.247Z,14.57
2023-04-24T15:30:17.316Z,15.03
2023-04-24T15:35:18.381Z,14.57
2023-04-24T15:40:19.493Z,14.78
2023-04-24T15:45:20.579Z,13.98
2023-04-24T15:50:21.637Z,13.49
2023-04-24T15:55:24.485Z,13.22
2023-04-24T16:00:23.549Z,13.00
2023-04-24T16:05:24.619Z,11.72
2023-04-24T16:10:26.693Z,11.80
2023-04-24T16:15:29.671Z,12.64
2023-04-24T16:20:27.931Z,12.88
2023-04-24T16:25:27.107Z,13.33
2023-04-24T16:30:29.196Z,13.38
2023-04-24T16:35:28.297Z,13.41
2023-04-24T16:40:29.396Z,13.46
2023-04-24T16:45:30.424Z,13.83
2023-04-24T16:50:31.508Z,13.30
2023-04-24T16:55:33.762Z,13.30
2023-04-24T17:00:33.165Z,12.49
2023-04-24T17:05:35.599Z,12.15
2023-04-24T17:10:35.784Z,12.30
2023-04-24T17:15:34.940Z,12.41
2023-04-24T17:20:41.171Z,12.71
2023-04-24T17:25:41.503Z,13.00
2023-04-24T17:30:37.658Z,12.96
2023-04-24T17:35:36.741Z,12.24
2023-04-24T17:40:38.381Z,11.80
2023-04-24T17:45:41.583Z,11.61
2023-04-24T17:50:39.093Z,11.89
2023-04-24T17:55:40.273Z,12.02
2023-04-24T18:00:39.542Z,11.94
2023-04-24T18:05:41.308Z,11.44
2023-04-24T18:10:40.573Z,10.06
2023-04-24T18:15:41.704Z,9.61
2023-04-24T18:20:44.000Z,9.45
2023-04-24T18:25:43.515Z,9.30
2023-04-24T18:30:43.130Z,9.40
2023-04-24T18:35:43.541Z,9.75
2023-04-24T18:40:42.894Z,9.76
2023-04-24T18:45:44.402Z,9.64
2023-04-24T18:50:45.809Z,9.60
2023-04-24T18:55:45.175Z,9.58
2023-04-24T19:00:46.654Z,9.45
2023-04-24T19:05:46.162Z,9.40
2023-04-24T19:10:46.641Z,9.30
2023-04-24T19:15:46.120Z,9.24
2023-04-24T19:20:49.257Z,9.25
2023-04-24T19:25:48.646Z,9.24
2023-04-24T19:30:48.171Z,9.24
2023-04-24T19:35:47.564Z,9.18
2023-04-24T19:40:49.048Z,9.21
2023-04-24T19:45:49.348Z,8.96
2023-04-24T19:50:49.463Z,8.86
2023-04-24T19:55:48.778Z,8.91
2023-04-24T20:00:49.953Z,8.97
2023-04-24T20:05:51.438Z,8.96
2023-04-24T20:10:50.690Z,9.01
2023-04-24T20:15:52.100Z,9.02
2023-04-24T20:20:51.236Z,8.93
2023-04-24T20:25:53.332Z,9.06
2023-04-24T20:30:52.530Z,9.02
2023-04-24T20:35:54.195Z,9.10
2023-04-24T20:40:58.000Z,9.02
2023-04-24T20:45:53.382Z,9.18
2023-04-24T20:50:53.581Z,9.02
2023-04-24T20:55:54.707Z,8.99
2023-04-24T21:00:55.905Z,8.96
2023-04-24T21:05:58.126Z,8.90
2023-04-24T21:10:58.190Z,8.75
2023-04-24T21:15:59.311Z,8.68
2023-04-24T21:20:58.432Z,8.66
2023-04-24T21:25:59.643Z,8.63
2023-04-24T21:31:00.799Z,8.68
2023-04-24T21:36:02.079Z,8.83
2023-04-24T21:41:03.111Z,8.90
2023-04-24T21:46:04.293Z,8.97
2023-04-24T21:51:05.388Z,9.02
2023-04-24T21:56:06.561Z,8.84
2023-04-24T22:01:07.775Z,8.75
2023-04-24T22:06:08.843Z,8.83
2023-04-24T22:11:19.931Z,8.94
2023-04-24T22:16:10.040Z,9.04
2023-04-24T22:21:11.071Z,9.10
2023-04-24T22:26:13.156Z,9.31
2023-04-24T22:31:12.351Z,9.23
2023-04-24T22:36:13.513Z,9.15
2023-04-24T22:41:14.586Z,9.06
2023-04-24T22:46:15.720Z,8.96
2023-04-24T22:51:15.850Z,8.84
2023-04-24T22:56:17.934Z,8.73
2023-04-24T23:01:17.117Z,8.73
2023-04-24T23:06:18.236Z,8.69
2023-04-24T23:11:19.353Z,8.73
2023-04-24T23:16:20.520Z,8.72
2023-04-24T23:21:21.553Z,8.83
2023-04-24T23:26:22.834Z,8.88
2023-04-24T23:31:23.946Z,9.04
2023-04-24T23:36:26.050Z,9.09
2023-04-24T23:41:25.176Z,9.09
2023-04-24T23:46:27.366Z,8.97
2023-04-24T23:51:26.719Z,8.91
2023-04-24T23:56:27.806Z,8.93
